Time,TemperatureF,DewpointF,PressureIn,WindDirection,WindDirectionDegrees,WindSpeedMPH,WindSpeedGustMPH,Humidity,HourlyPrecipIn,Conditions,Clouds,dailyrainin,SoftwareType,DateUTC
2013-07-30 00:01:00,59.0,50.7,30.29,North,0,0.0,0.0,74,0.00,,,0.00,WUHU216HW,2013-07-30 04:01:00,
2013-07-30 00:02:00,58.8,50.5,30.29,North,0,0.0,0.0,74,0.00,,,0.00,WUHU216HW,2013-07-30 04:02:00,
2013-07-30 00:07:00,58.8,50.5,30.29,North,0,0.0,0.0,74,0.00,,,0.00,WUHU216HW,2013-07-30 04:07:00,
2013-07-30 00:12:00,58.8,50.5,30.29,North,0,0.0,0.0,74,0.00,,,0.00,WUHU216HW,2013-07-30 04:12:00,
2013-07-30 00:17:00,58.2,50.0,30.29,North,0,0.0,0.0,74,0.00,,,0.00,WUHU216HW,2013-07-30 04:17:00,
2013-07-30 00:22:00,58.1,50.1,30.29,North,0,0.0,0.0,75,0.00,,,0.00,WUHU216HW,2013-07-30 04:22:00,
2013-07-30 00:27:00,58.1,50.1,30.29,North,0,0.0,0.0,75,0.00,,,0.00,WUHU216HW,2013-07-30 04:27:00,
2013-07-30 00:32:00,58.1,50.1,30.29,North,0,0.0,0.0,75,0.00,,,0.00,WUHU216HW,2013-07-30 04:32:00,
2013-07-30 00:37:00,57.9,50.0,30.29,North,0,0.0,0.0,75,0.00,,,0.00,WUHU216HW,2013-07-30 04:37:00,
2013-07-30 00:42:00,57.9,50.0,30.29,North,0,0.0,0.0,75,0.00,,,0.00,WUHU216HW,2013-07-30 04:42:00,
2013-07-30 00:47:00,57.9,50.0,30.29,North,0,0.0,0.0,75,0.00,,,0.00,WUHU216HW,2013-07-30 04:47:00,
2013-07-30 00:52:00,57.9,50.3,30.29,North,0,0.0,0.0,76,0.00,,,0.00,WUHU216HW,2013-07-30 04:52:00,
2013-07-30 00:57:00,57.7,50.0,30.29,North,0,0.0,0.0,76,0.00,,,0.00,WUHU216HW,2013-07-30 04:57:00,
2013-07-30 01:02:00,57.5,50.0,30.29,North,0,0.0,0.0,76,0.00,,,0.00,WUHU216HW,2013-07-30 05:02:00,
2013-07-30 01:07:00,57.3,49.8,30.29,North,0,0.0,0.0,76,0.00,,,0.00,WUHU216HW,2013-07-30 05:07:00,
2013-07-30 01:12:00,57.3,49.8,30.29,North,0,0.0,0.0,76,0.00,,,0.00,WUHU216HW,2013-07-30 05:12:00,
2013-07-30 01:17:00,57.0,49.4,30.29,North,0,0.0,0.0,76,0.00,,,0.00,WUHU216HW,2013-07-30 05:17:00,
2013-07-30 01:22:00,57.0,49.4,30.29,North,0,0.0,0.0,76,0.00,,,0.00,WUHU216HW,2013-07-30 05:22:00,
2013-07-30 01:27:00,57.0,49.8,30.29,North,0,0.0,0.0,77,0.00,,,0.00,WUHU216HW,2013-07-30 05:27:00,
2013-07-30 01:32:00,56.8,49.6,30.29,North,0,0.0,0.0,77,0.00,,,0.00,WUHU216HW,2013-07-30 05:32:00,
2013-07-30 01:37:00,56.8,49.6,30.29,North,0,0.0,0.0,77,0.00,,,0.00,WUHU216HW,2013-07-30 05:37:00,
2013-07-30 01:42:00,56.8,49.6,30.29,North,0,0.0,0.0,77,0.00,,,0.00,WUHU216HW,2013-07-30 05:42:00,
2013-07-30 01:47:00,56.4,49.2,30.29,North,0,0.0,0.0,77,0.00,,,0.00,WUHU216HW,2013-07-30 05:47:00,
2013-07-30 01:52:00,56.4,49.2,30.29,North,0,0.0,0.0,77,0.00,,,0.00,WUHU216HW,2013-07-30 05:52:00,
2013-07-30 01:57:00,56.4,49.2,30.28,North,0,0.0,0.0,77,0.00,,,0.00,WUHU216HW,2013-07-30 05:57:00,
2013-07-30 02:02:00,56.3,49.1,30.28,North,0,0.0,0.0,77,0.00,,,0.00,WUHU216HW,2013-07-30 06:02:00,
2013-07-30 02:07:00,56.3,49.1,30.28,North,0,0.0,0.0,77,0.00,,,0.00,WUHU216HW,2013-07-30 06:07:00,
2013-07-30 02:12:00,56.1,49.2,30.28,North,0,0.0,0.0,78,0.00,,,0.00,WUHU216HW,2013-07-30 06:12:00,
2013-07-30 02:17:00,55.9,49.1,30.29,North,0,0.0,0.0,78,0.00,,,0.00,WUHU216HW,2013-07-30 06:17:00,
2013-07-30 02:22:00,55.7,48.9,30.28,North,0,0.0,0.0,78,0.00,,,0.00,WUHU216HW,2013-07-30 06:22:00,
2013-07-30 02:27:00,55.5,48.7,30.29,North,0,0.0,0.0,78,0.00,,,0.00,WUHU216HW,2013-07-30 06:27:00,
2013-07-30 02:32:00,55.5,48.7,30.28,North,0,0.0,0.0,78,0.00,,,0.00,WUHU216HW,2013-07-30 06:32:00,
2013-07-30 02:37:00,55.2,48.4,30.28,North,0,0.0,0.0,78,0.00,,,0.00,WUHU216HW,2013-07-30 06:37:00,
2013-07-30 02:42:00,55.0,48.5,30.28,North,0,0.0,0.0,79,0.00,,,0.00,WUHU216HW,2013-07-30 06:42:00,
2013-07-30 02:48:00,55.2,48.7,30.28,North,0,0.0,0.0,79,0.00,,,0.00,WUHU216HW,2013-07-30 06:48:00,
2013-07-30 02:53:00,55.2,48.7,30.28,North,0,0.0,0.0,79,0.00,,,0.00,WUHU216HW,2013-07-30 06:53:00,
2013-07-30 02:58:00,54.6,48.5,30.28,North,0,0.0,0.0,79,0.00,,,0.00,WUHU216HW,2013-07-30 06:58:00,
2013-07-30 03:03:00,54.8,48.4,30.28,North,0,0.0,0.0,79,0.00,,,0.00,WUHU216HW,2013-07-30 07:03:00,
2013-07-30 03:08:00,54.6,48.2,30.28,North,0,0.0,0.0,79,0.00,,,0.00,WUHU216HW,2013-07-30 07:08:00,
2013-07-30 03:13:00,54.6,48.2,30.28,North,0,0.0,0.0,79,0.00,,,0.00,WUHU216HW,2013-07-30 07:13:00,
2013-07-30 03:18:00,54.6,48.6,30.28,North,0,0.0,0.0,80,0.00,,,0.00,WUHU216HW,2013-07-30 07:18:00,
2013-07-30 03:23:00,54.6,48.6,30.28,North,0,0.0,0.0,80,0.00,,,0.00,WUHU216HW,2013-07-30 07:23:00,
2013-07-30 03:28:00,54.5,48.4,30.29,North,0,0.0,0.0,79,0.00,,,0.00,WUHU216HW,2013-07-30 07:28:00,
2013-07-30 03:33:00,54.3,48.3,30.29,North,0,0.0,0.0,80,0.00,,,0.00,WUHU216HW,2013-07-30 07:33:00,
2013-07-30 03:38:00,54.3,48.3,30.28,North,0,0.0,0.0,80,0.00,,,0.00,WUHU216HW,2013-07-30 07:38:00,
2013-07-30 03:43:00,54.3,48.3,30.28,North,0,0.0,0.0,80,0.00,,,0.00,WUHU216HW,2013-07-30 07:43:00,
2013-07-30 03:48:00,54.3,48.3,30.28,North,0,0.0,0.0,80,0.00,,,0.00,WUHU216HW,2013-07-30 07:48:00,
2013-07-30 03:53:00,54.1,48.1,30.28,North,0,0.0,0.0,80,0.00,,,0.00,WUHU216HW,2013-07-30 07:53:00,
2013-07-30 03:58:00,53.9,47.9,30.29,North,0,0.0,0.0,80,0.00,,,0.00,WUHU216HW,2013-07-30 07:58:00,
2013-07-30 04:03:00,53.9,47.9,30.29,North,0,0.0,0.0,80,0.00,,,0.00,WUHU216HW,2013-07-30 08:03:00,
2013-07-30 04:08:00,53.9,47.9,30.29,North,0,0.0,0.0,80,0.00,,,0.00,WUHU216HW,2013-07-30 08:08:00,
2013-07-30 04:13:00,53.9,47.9,30.28,North,0,0.0,0.0,80,0.00,,,0.00,WUHU216HW,2013-07-30 08:13:00,
2013-07-30 04:18:00,53.9,47.9,30.28,North,0,0.0,0.0,80,0.00,,,0.00,WUHU216HW,2013-07-30 08:18:00,
2013-07-30 04:23:00,53.9,47.9,30.28,North,0,0.0,0.0,80,0.00,,,0.00,WUHU216HW,2013-07-30 08:23:00,
2013-07-30 04:28:00,53.9,47.9,30.28,North,0,0.0,0.0,80,0.00,,,0.00,WUHU216HW,2013-07-30 08:28:00,
2013-07-30 04:33:00,53.7,47.8,30.28,North,0,0.0,0.0,80,0.00,,,0.00,WUHU216HW,2013-07-30 08:33:00,
2013-07-30 04:38:00,53.6,47.6,30.28,North,0,0.0,0.0,80,0.00,,,0.00,WUHU216HW,2013-07-30 08:38:00,
2013-07-30 04:43:00,53.4,47.9,30.28,North,0,0.0,0.0,81,0.00,,,0.00,WUHU216HW,2013-07-30 08:43:00,
2013-07-30 04:48:00,53.6,47.9,30.27,North,0,0.0,0.0,81,0.00,,,0.00,WUHU216HW,2013-07-30 08:48:00,
2013-07-30 04:53:00,53.6,47.9,30.27,North,0,0.0,0.0,81,0.00,,,0.00,WUHU216HW,2013-07-30 08:53:00,
2013-07-30 04:58:00,53.4,47.7,30.28,North,0,0.0,0.0,81,0.00,,,0.00,WUHU216HW,2013-07-30 08:58:00,
2013-07-30 05:03:00,53.4,47.7,30.28,North,0,0.0,0.0,81,0.00,,,0.00,WUHU216HW,2013-07-30 09:03:00,
2013-07-30 05:08:00,53.2,47.9,30.28,North,0,0.0,0.0,82,0.00,,,0.00,WUHU216HW,2013-07-30 09:08:00,
2013-07-30 05:13:00,53.2,47.9,30.28,North,0,0.0,0.0,82,0.00,,,0.00,WUHU216HW,2013-07-30 09:13:00,
2013-07-30 05:18:00,53.2,47.9,30.28,North,0,0.0,0.0,82,0.00,,,0.00,WUHU216HW,2013-07-30 09:18:00,
2013-07-30 05:23:00,53.2,47.9,30.28,North,0,0.0,0.0,82,0.00,,,0.00,WUHU216HW,2013-07-30 09:23:00,
2013-07-30 05:28:00,52.8,47.7,30.28,North,0,0.0,0.0,82,0.00,,,0.00,WUHU216HW,2013-07-30 09:28:00,
2013-07-30 05:33:00,52.8,47.5,30.28,North,0,0.0,0.0,82,0.00,,,0.00,WUHU216HW,2013-07-30 09:33:00,
2013-07-30 05:38:00,52.8,47.5,30.28,North,0,0.0,0.0,82,0.00,,,0.00,WUHU216HW,2013-07-30 09:38:00,
2013-07-30 05:43:00,52.8,47.5,30.28,North,0,0.0,0.0,82,0.00,,,0.00,WUHU216HW,2013-07-30 09:43:00,
2013-07-30 05:48:00,52.7,47.6,30.28,North,0,0.0,0.0,83,0.00,,,0.00,WUHU216HW,2013-07-30 09:48:00,
2013-07-30 05:53:00,52.5,47.4,30.28,North,0,0.0,0.0,83,0.00,,,0.00,WUHU216HW,2013-07-30 09:53:00,
2013-07-30 05:58:00,52.5,47.4,30.28,North,0,0.0,0.0,83,0.00,,,0.00,WUHU216HW,2013-07-30 09:58:00,
2013-07-30 06:03:00,52.5,47.4,30.28,North,0,0.0,0.0,83,0.00,,,0.00,WUHU216HW,2013-07-30 10:03:00,
2013-07-30 06:08:00,52.5,47.4,30.27,North,0,0.0,0.0,83,0.00,,,0.00,WUHU216HW,2013-07-30 10:08:00,
2013-07-30 06:13:00,52.5,47.4,30.27,North,0,0.0,0.0,83,0.00,,,0.00,WUHU216HW,2013-07-30 10:13:00,
2013-07-30 06:18:00,52.5,47.8,30.28,North,0,0.0,0.0,84,0.00,,,0.00,WUHU216HW,2013-07-30 10:18:00,
2013-07-30 06:23:00,52.5,47.8,30.28,North,0,0.0,0.0,84,0.00,,,0.00,WUHU216HW,2013-07-30 10:23:00,
2013-07-30 06:28:00,52.5,47.8,30.27,North,0,0.0,0.0,84,0.00,,,0.00,WUHU216HW,2013-07-30 10:28:00,
2013-07-30 06:33:00,52.5,47.8,30.28,North,0,0.0,0.0,84,0.00,,,0.00,WUHU216HW,2013-07-30 10:33:00,
2013-07-30 06:38:00,52.5,47.8,30.27,North,0,0.0,0.0,84,0.00,,,0.00,WUHU216HW,2013-07-30 10:38:00,
2013-07-30 06:43:00,52.5,48.1,30.28,North,0,0.0,0.0,85,0.00,,,0.00,WUHU216HW,2013-07-30 10:43:00,
2013-07-30 06:48:00,52.5,48.1,30.28,North,0,0.0,0.0,85,0.00,,,0.00,WUHU216HW,2013-07-30 10:48:00,
2013-07-30 06:53:00,52.5,48.1,30.28,North,0,0.0,0.0,85,0.00,,,0.00,WUHU216HW,2013-07-30 10:53:00,
2013-07-30 06:58:00,52.5,48.1,30.29,North,0,0.0,0.0,85,0.00,,,0.00,WUHU216HW,2013-07-30 10:58:00,
2013-07-30 07:03:00,52.5,48.1,30.29,North,0,0.0,0.0,85,0.00,,,0.00,WUHU216HW,2013-07-30 11:03:00,
2013-07-30 07:08:00,52.7,48.2,30.29,North,0,0.0,0.0,85,0.00,,,0.00,WUHU216HW,2013-07-30 11:08:00,
2013-07-30 07:13:00,52.7,48.2,30.29,North,0,0.0,0.0,85,0.00,,,0.00,WUHU216HW,2013-07-30 11:13:00,
2013-07-30 07:18:00,52.8,48.4,30.29,North,0,0.0,0.0,85,0.00,,,0.00,WUHU216HW,2013-07-30 11:18:00,
2013-07-30 07:23:00,52.8,48.4,30.29,North,0,0.0,0.0,85,0.00,,,0.00,WUHU216HW,2013-07-30 11:23:00,
2013-07-30 07:28:00,52.8,48.9,30.29,North,0,0.0,0.0,86,0.00,,,0.00,WUHU216HW,2013-07-30 11:28:00,
2013-07-30 07:33:00,53.2,49.1,30.29,North,0,0.0,0.0,86,0.00,,,0.00,WUHU216HW,2013-07-30 11:33:00,
2013-07-30 07:38:00,53.2,49.1,30.29,North,0,0.0,0.0,86,0.00,,,0.00,WUHU216HW,2013-07-30 11:38:00,
2013-07-30 07:43:00,53.4,49.3,30.30,North,0,0.0,0.0,86,0.00,,,0.00,WUHU216HW,2013-07-30 11:43:00,
2013-07-30 07:47:00,53.6,49.4,30.30,North,0,0.0,0.0,86,0.00,,,0.00,WUHU216HW,2013-07-30 11:47:00,
2013-07-30 07:52:00,53.7,49.9,30.29,North,0,0.0,0.0,87,0.00,,,0.00,WUHU216HW,2013-07-30 11:52:00,
2013-07-30 07:57:00,54.1,50.3,30.29,North,0,0.0,0.0,87,0.00,,,0.00,WUHU216HW,2013-07-30 11:57:00,